sensor_id;sensor_type;location;lat;lon;timestamp;P1;durP1;ratioP1;P2;durP2;ratioP2
41653;SDS011;68687;52.030;7.110;2023-04-01T00:00:54;6.88;;;5.97;;
41653;SDS011;68687;52.030;7.110;2023-04-01T00:03:21;12.70;;;6.10;;
41653;SDS011;68687;52.030;7.110;2023-04-01T00:05:47;10.93;;;5.85;;
41653;SDS011;68687;52.030;7.110;2023-04-01T00:08:14;9.85;;;5.95;;
41653;SDS011;68687;52.030;7.110;2023-04-01T00:10:40;6.45;;;5.80;;
41653;SDS011;68687;52.030;7.110;2023-04-01T00:13:06;8.70;;;5.20;;
41653;SDS011;68687;52.030;7.110;2023-04-01T00:15:31;7.38;;;5.95;;
41653;SDS011;68687;52.030;7.110;2023-04-01T00:17:57;7.38;;;5.47;;
41653;SDS011;68687;52.030;7.110;2023-04-01T00:20:23;6.93;;;5.40;;
41653;SDS011;68687;52.030;7.110;2023-04-01T00:22:49;8.32;;;5.28;;
41653;SDS011;68687;52.030;7.110;2023-04-01T00:25:14;9.18;;;5.97;;
41653;SDS011;68687;52.030;7.110;2023-04-01T00:27:40;7.57;;;5.90;;
41653;SDS011;68687;52.030;7.110;2023-04-01T00:30:06;8.77;;;5.63;;
41653;SDS011;68687;52.030;7.110;2023-04-01T00:32:32;10.88;;;5.97;;
41653;SDS011;68687;52.030;7.110;2023-04-01T00:34:57;9.63;;;6.15;;
41653;SDS011;68687;52.030;7.110;2023-04-01T00:37:26;9.55;;;5.80;;
41653;SDS011;68687;52.030;7.110;2023-04-01T00:39:52;9.80;;;6.15;;
41653;SDS011;68687;52.030;7.110;2023-04-01T00:42:18;7.22;;;6.13;;
41653;SDS011;68687;52.030;7.110;2023-04-01T00:44:45;8.43;;;6.10;;
41653;SDS011;68687;52.030;7.110;2023-04-01T00:47:13;8.80;;;5.97;;
41653;SDS011;68687;52.030;7.110;2023-04-01T00:49:40;10.38;;;6.25;;
41653;SDS011;68687;52.030;7.110;2023-04-01T00:52:09;12.27;;;7.50;;
41653;SDS011;68687;52.030;7.110;2023-04-01T00:54:37;12.88;;;6.63;;
41653;SDS011;68687;52.030;7.110;2023-04-01T00:57:13;13.82;;;6.45;;
41653;SDS011;68687;52.030;7.110;2023-04-01T00:59:45;9.73;;;6.80;;
41653;SDS011;68687;52.030;7.110;2023-04-01T01:02:13;10.27;;;6.50;;
41653;SDS011;68687;52.030;7.110;2023-04-01T01:04:39;9.63;;;6.50;;
41653;SDS011;68687;52.030;7.110;2023-04-01T01:12:48;10.43;;;7.10;;
41653;SDS011;68687;52.030;7.110;2023-04-01T01:15:26;7.13;;;6.10;;
41653;SDS011;68687;52.030;7.110;2023-04-01T01:17:59;15.85;;;6.65;;
41653;SDS011;68687;52.030;7.110;2023-04-01T01:23:09;6.63;;;6.00;;
41653;SDS011;68687;52.030;7.110;2023-04-01T01:26:08;10.10;;;6.22;;
41653;SDS011;68687;52.030;7.110;2023-04-01T01:31:44;10.05;;;5.32;;
41653;SDS011;68687;52.030;7.110;2023-04-01T01:34:38;10.20;;;5.47;;
41653;SDS011;68687;52.030;7.110;2023-04-01T01:37:05;9.90;;;4.93;;
41653;SDS011;68687;52.030;7.110;2023-04-01T01:39:35;7.40;;;5.57;;
41653;SDS011;68687;52.030;7.110;2023-04-01T01:42:04;7.65;;;5.60;;
41653;SDS011;68687;52.030;7.110;2023-04-01T01:44:33;9.15;;;5.65;;
41653;SDS011;68687;52.030;7.110;2023-04-01T01:47:00;6.68;;;5.63;;
41653;SDS011;68687;52.030;7.110;2023-04-01T01:49:27;6.40;;;5.80;;
41653;SDS011;68687;52.030;7.110;2023-04-01T01:51:55;8.88;;;5.22;;
41653;SDS011;68687;52.030;7.110;2023-04-01T01:54:21;6.90;;;5.40;;
41653;SDS011;68687;52.030;7.110;2023-04-01T01:56:47;7.60;;;5.20;;
41653;SDS011;68687;52.030;7.110;2023-04-01T01:59:16;5.40;;;4.90;;
41653;SDS011;68687;52.030;7.110;2023-04-01T02:01:46;12.88;;;5.00;;
41653;SDS011;68687;52.030;7.110;2023-04-01T02:04:15;10.95;;;5.20;;
41653;SDS011;68687;52.030;7.110;2023-04-01T02:06:45;7.00;;;4.80;;
41653;SDS011;68687;52.030;7.110;2023-04-01T02:09:14;5.90;;;4.65;;
41653;SDS011;68687;52.030;7.110;2023-04-01T02:11:51;8.82;;;4.82;;
41653;SDS011;68687;52.030;7.110;2023-04-01T02:14:21;6.32;;;4.13;;
41653;SDS011;68687;52.030;7.110;2023-04-01T02:19:24;4.82;;;4.43;;
41653;SDS011;68687;52.030;7.110;2023-04-01T02:21:55;6.60;;;4.28;;
41653;SDS011;68687;52.030;7.110;2023-04-01T02:24:25;4.55;;;3.95;;
41653;SDS011;68687;52.030;7.110;2023-04-01T02:26:53;5.68;;;4.35;;
41653;SDS011;68687;52.030;7.110;2023-04-01T02:29:21;4.85;;;4.00;;
41653;SDS011;68687;52.030;7.110;2023-04-01T02:31:49;5.90;;;4.10;;
41653;SDS011;68687;52.030;7.110;2023-04-01T02:34:16;4.53;;;3.78;;
41653;SDS011;68687;52.030;7.110;2023-04-01T02:36:42;4.40;;;3.63;;
41653;SDS011;68687;52.030;7.110;2023-04-01T02:39:08;4.45;;;4.05;;
41653;SDS011;68687;52.030;7.110;2023-04-01T02:41:38;5.22;;;4.15;;
41653;SDS011;68687;52.030;7.110;2023-04-01T02:44:05;4.90;;;4.40;;
41653;SDS011;68687;52.030;7.110;2023-04-01T02:46:32;5.00;;;4.45;;
41653;SDS011;68687;52.030;7.110;2023-04-01T02:48:57;7.30;;;4.43;;
41653;SDS011;68687;52.030;7.110;2023-04-01T02:51:22;4.93;;;4.05;;
41653;SDS011;68687;52.030;7.110;2023-04-01T02:53:48;6.28;;;4.18;;
41653;SDS011;68687;52.030;7.110;2023-04-01T02:56:13;4.72;;;4.20;;
41653;SDS011;68687;52.030;7.110;2023-04-01T02:58:38;6.63;;;4.85;;
41653;SDS011;68687;52.030;7.110;2023-04-01T03:01:03;8.30;;;5.28;;
41653;SDS011;68687;52.030;7.110;2023-04-01T03:03:29;6.25;;;5.35;;
41653;SDS011;68687;52.030;7.110;2023-04-01T03:05:54;8.60;;;5.25;;
41653;SDS011;68687;52.030;7.110;2023-04-01T03:08:23;6.50;;;5.57;;
41653;SDS011;68687;52.030;7.110;2023-04-01T03:10:49;7.00;;;6.15;;
41653;SDS011;68687;52.030;7.110;2023-04-01T03:13:14;7.78;;;5.50;;
41653;SDS011;68687;52.030;7.110;2023-04-01T03:15:40;8.45;;;5.68;;
41653;SDS011;68687;52.030;7.110;2023-04-01T03:18:05;8.48;;;5.18;;
41653;SDS011;68687;52.030;7.110;2023-04-01T03:20:30;9.48;;;6.65;;
41653;SDS011;68687;52.030;7.110;2023-04-01T03:22:55;7.93;;;6.05;;
41653;SDS011;68687;52.030;7.110;2023-04-01T03:25:21;9.10;;;6.53;;
41653;SDS011;68687;52.030;7.110;2023-04-01T03:27:46;8.40;;;6.43;;
41653;SDS011;68687;52.030;7.110;2023-04-01T03:30:11;12.60;;;7.03;;
41653;SDS011;68687;52.030;7.110;2023-04-01T03:32:37;9.50;;;7.00;;
41653;SDS011;68687;52.030;7.110;2023-04-01T03:35:02;8.00;;;7.07;;
41653;SDS011;68687;52.030;7.110;2023-04-01T03:37:28;10.57;;;7.82;;
41653;SDS011;68687;52.030;7.110;2023-04-01T03:39:53;8.60;;;7.57;;
41653;SDS011;68687;52.030;7.110;2023-04-01T03:42:18;10.68;;;7.55;;
41653;SDS011;68687;52.030;7.110;2023-04-01T03:44:44;8.80;;;7.15;;
41653;SDS011;68687;52.030;7.110;2023-04-01T03:47:09;7.32;;;6.63;;
41653;SDS011;68687;52.030;7.110;2023-04-01T03:49:35;8.38;;;7.55;;
41653;SDS011;68687;52.030;7.110;2023-04-01T03:52:00;8.93;;;6.40;;
41653;SDS011;68687;52.030;7.110;2023-04-01T03:54:25;8.40;;;6.55;;
41653;SDS011;68687;52.030;7.110;2023-04-01T03:56:51;9.98;;;6.50;;
41653;SDS011;68687;52.030;7.110;2023-04-01T03:59:16;7.25;;;6.15;;
41653;SDS011;68687;52.030;7.110;2023-04-01T04:01:41;8.45;;;6.55;;
41653;SDS011;68687;52.030;7.110;2023-04-01T04:04:07;11.00;;;6.78;;
41653;SDS011;68687;52.030;7.110;2023-04-01T04:06:35;9.52;;;6.93;;
41653;SDS011;68687;52.030;7.110;2023-04-01T04:09:00;8.77;;;7.05;;
41653;SDS011;68687;52.030;7.110;2023-04-01T04:11:25;10.02;;;6.70;;
41653;SDS011;68687;52.030;7.110;2023-04-01T04:13:51;7.78;;;6.60;;
41653;SDS011;68687;52.030;7.110;2023-04-01T04:16:17;9.02;;;7.03;;
41653;SDS011;68687;52.030;7.110;2023-04-01T04:18:42;8.93;;;6.75;;
41653;SDS011;68687;52.030;7.110;2023-04-01T04:21:10;11.40;;;7.68;;
41653;SDS011;68687;52.030;7.110;2023-04-01T04:23:37;9.73;;;7.35;;
41653;SDS011;68687;52.030;7.110;2023-04-01T04:26:04;10.32;;;8.05;;
41653;SDS011;68687;52.030;7.110;2023-04-01T04:28:32;10.68;;;7.25;;
41653;SDS011;68687;52.030;7.110;2023-04-01T04:30:57;9.27;;;7.47;;
41653;SDS011;68687;52.030;7.110;2023-04-01T04:33:23;10.68;;;8.95;;
41653;SDS011;68687;52.030;7.110;2023-04-01T04:35:49;10.68;;;7.85;;
41653;SDS011;68687;52.030;7.110;2023-04-01T04:38:15;10.65;;;7.57;;
41653;SDS011;68687;52.030;7.110;2023-04-01T04:40:41;8.48;;;7.35;;
41653;SDS011;68687;52.030;7.110;2023-04-01T04:43:08;9.73;;;7.18;;
41653;SDS011;68687;52.030;7.110;2023-04-01T04:45:36;10.68;;;7.93;;
41653;SDS011;68687;52.030;7.110;2023-04-01T04:48:02;13.43;;;7.95;;
41653;SDS011;68687;52.030;7.110;2023-04-01T04:50:27;9.68;;;7.07;;
41653;SDS011;68687;52.030;7.110;2023-04-01T04:52:52;8.85;;;7.55;;
41653;SDS011;68687;52.030;7.110;2023-04-01T04:55:18;9.35;;;7.78;;
41653;SDS011;68687;52.030;7.110;2023-04-01T04:57:43;15.90;;;8.40;;
41653;SDS011;68687;52.030;7.110;2023-04-01T05:00:09;8.63;;;6.82;;
41653;SDS011;68687;52.030;7.110;2023-04-01T05:02:38;10.50;;;6.88;;
41653;SDS011;68687;52.030;7.110;2023-04-01T05:05:03;9.85;;;7.40;;
41653;SDS011;68687;52.030;7.110;2023-04-01T05:07:29;9.65;;;7.10;;
41653;SDS011;68687;52.030;7.110;2023-04-01T05:09:54;10.73;;;7.72;;
41653;SDS011;68687;52.030;7.110;2023-04-01T05:12:20;11.60;;;7.45;;
41653;SDS011;68687;52.030;7.110;2023-04-01T05:14:45;10.77;;;7.70;;
41653;SDS011;68687;52.030;7.110;2023-04-01T05:17:11;11.85;;;7.53;;
41653;SDS011;68687;52.030;7.110;2023-04-01T05:19:37;9.82;;;7.28;;
41653;SDS011;68687;52.030;7.110;2023-04-01T05:22:03;10.93;;;8.30;;
41653;SDS011;68687;52.030;7.110;2023-04-01T05:24:30;10.45;;;7.75;;
41653;SDS011;68687;52.030;7.110;2023-04-01T05:26:55;10.55;;;7.50;;
41653;SDS011;68687;52.030;7.110;2023-04-01T05:29:22;10.15;;;7.45;;
41653;SDS011;68687;52.030;7.110;2023-04-01T05:31:47;12.00;;;8.88;;
41653;SDS011;68687;52.030;7.110;2023-04-01T05:34:13;14.27;;;8.82;;
41653;SDS011;68687;52.030;7.110;2023-04-01T05:36:38;12.50;;;8.63;;
41653;SDS011;68687;52.030;7.110;2023-04-01T05:39:03;10.43;;;8.15;;
41653;SDS011;68687;52.030;7.110;2023-04-01T05:41:28;11.48;;;8.20;;
41653;SDS011;68687;52.030;7.110;2023-04-01T05:43:54;13.35;;;7.97;;
41653;SDS011;68687;52.030;7.110;2023-04-01T05:46:20;10.93;;;8.10;;
41653;SDS011;68687;52.030;7.110;2023-04-01T05:48:45;11.43;;;7.75;;
41653;SDS011;68687;52.030;7.110;2023-04-01T05:51:12;13.93;;;8.20;;
41653;SDS011;68687;52.030;7.110;2023-04-01T05:53:38;16.35;;;9.60;;
41653;SDS011;68687;52.030;7.110;2023-04-01T05:56:04;12.35;;;8.82;;
41653;SDS011;68687;52.030;7.110;2023-04-01T05:58:29;13.80;;;9.18;;
41653;SDS011;68687;52.030;7.110;2023-04-01T06:01:05;28.83;;;10.68;;
41653;SDS011;68687;52.030;7.110;2023-04-01T06:03:32;13.07;;;8.40;;
41653;SDS011;68687;52.030;7.110;2023-04-01T06:05:57;15.30;;;9.82;;
41653;SDS011;68687;52.030;7.110;2023-04-01T06:08:23;18.20;;;9.80;;
41653;SDS011;68687;52.030;7.110;2023-04-01T06:13:52;14.05;;;8.25;;
41653;SDS011;68687;52.030;7.110;2023-04-01T06:19:22;16.08;;;9.20;;
41653;SDS011;68687;52.030;7.110;2023-04-01T06:30:21;12.10;;;8.32;;
41653;SDS011;68687;52.030;7.110;2023-04-01T06:33:02;12.20;;;8.20;;
41653;SDS011;68687;52.030;7.110;2023-04-01T06:36:00;12.35;;;8.07;;
41653;SDS011;68687;52.030;7.110;2023-04-01T06:44:20;13.77;;;8.80;;
41653;SDS011;68687;52.030;7.110;2023-04-01T06:52:38;12.05;;;8.18;;
41653;SDS011;68687;52.030;7.110;2023-04-01T06:58:11;11.30;;;7.45;;
41653;SDS011;68687;52.030;7.110;2023-04-01T07:00:44;15.32;;;9.60;;
41653;SDS011;68687;52.030;7.110;2023-04-01T07:06:04;11.25;;;7.40;;
41653;SDS011;68687;52.030;7.110;2023-04-01T07:08:31;12.27;;;8.27;;
41653;SDS011;68687;52.030;7.110;2023-04-01T07:11:02;13.85;;;9.25;;
41653;SDS011;68687;52.030;7.110;2023-04-01T07:13:34;14.15;;;9.43;;
41653;SDS011;68687;52.030;7.110;2023-04-01T07:16:23;13.85;;;8.90;;
41653;SDS011;68687;52.030;7.110;2023-04-01T07:21:43;13.55;;;8.70;;
41653;SDS011;68687;52.030;7.110;2023-04-01T07:24:17;12.73;;;8.13;;
41653;SDS011;68687;52.030;7.110;2023-04-01T07:26:49;12.88;;;7.05;;
41653;SDS011;68687;52.030;7.110;2023-04-01T07:29:19;12.93;;;8.93;;
41653;SDS011;68687;52.030;7.110;2023-04-01T07:31:55;13.73;;;8.05;;
41653;SDS011;68687;52.030;7.110;2023-04-01T07:37:10;12.68;;;7.35;;
41653;SDS011;68687;52.030;7.110;2023-04-01T07:48:56;11.60;;;6.57;;
41653;SDS011;68687;52.030;7.110;2023-04-01T07:56:55;10.82;;;6.70;;
41653;SDS011;68687;52.030;7.110;2023-04-01T08:10:11;9.25;;;6.60;;
41653;SDS011;68687;52.030;7.110;2023-04-01T08:12:50;8.23;;;5.88;;
41653;SDS011;68687;52.030;7.110;2023-04-01T08:15:27;9.07;;;5.70;;
41653;SDS011;68687;52.030;7.110;2023-04-01T08:20:53;12.02;;;7.20;;
41653;SDS011;68687;52.030;7.110;2023-04-01T08:24:06;13.98;;;6.78;;
41653;SDS011;68687;52.030;7.110;2023-04-01T08:26:34;7.78;;;5.20;;
41653;SDS011;68687;52.030;7.110;2023-04-01T08:31:43;9.70;;;5.80;;
41653;SDS011;68687;52.030;7.110;2023-04-01T08:34:16;9.85;;;5.45;;
41653;SDS011;68687;52.030;7.110;2023-04-01T08:37:07;7.10;;;5.30;;
41653;SDS011;68687;52.030;7.110;2023-04-01T08:39:40;6.28;;;4.93;;
41653;SDS011;68687;52.030;7.110;2023-04-01T08:42:13;6.75;;;5.30;;
41653;SDS011;68687;52.030;7.110;2023-04-01T08:45:18;6.10;;;4.78;;
41653;SDS011;68687;52.030;7.110;2023-04-01T08:50:29;5.60;;;4.50;;
41653;SDS011;68687;52.030;7.110;2023-04-01T08:53:18;7.63;;;5.10;;
41653;SDS011;68687;52.030;7.110;2023-04-01T08:58:57;5.63;;;4.53;;
41653;SDS011;68687;52.030;7.110;2023-04-01T09:01:51;4.85;;;4.03;;
41653;SDS011;68687;52.030;7.110;2023-04-01T09:07:43;4.70;;;3.95;;
41653;SDS011;68687;52.030;7.110;2023-04-01T09:10:21;4.65;;;3.70;;
41653;SDS011;68687;52.030;7.110;2023-04-01T09:24:42;4.78;;;4.13;;
41653;SDS011;68687;52.030;7.110;2023-04-01T09:29:59;5.93;;;3.47;;
41653;SDS011;68687;52.030;7.110;2023-04-01T09:35:20;3.33;;;2.97;;
41653;SDS011;68687;52.030;7.110;2023-04-01T09:38:03;5.18;;;3.83;;
41653;SDS011;68687;52.030;7.110;2023-04-01T09:43:45;7.80;;;5.60;;
41653;SDS011;68687;52.030;7.110;2023-04-01T09:49:17;4.55;;;3.75;;
41653;SDS011;68687;52.030;7.110;2023-04-01T10:06:51;4.07;;;3.67;;
41653;SDS011;68687;52.030;7.110;2023-04-01T10:09:33;5.50;;;3.45;;
41653;SDS011;68687;52.030;7.110;2023-04-01T10:15:25;2.35;;;2.25;;
41653;SDS011;68687;52.030;7.110;2023-04-01T10:18:15;2.97;;;2.10;;
41653;SDS011;68687;52.030;7.110;2023-04-01T10:54:49;4.90;;;4.40;;
41653;SDS011;68687;52.030;7.110;2023-04-01T11:19:29;2.63;;;2.42;;
41653;SDS011;68687;52.030;7.110;2023-04-01T11:22:24;2.83;;;2.58;;
41653;SDS011;68687;52.030;7.110;2023-04-01T11:28:12;2.50;;;2.30;;
41653;SDS011;68687;52.030;7.110;2023-04-01T11:39:42;3.30;;;2.80;;
41653;SDS011;68687;52.030;7.110;2023-04-01T11:45:19;4.50;;;3.00;;
41653;SDS011;68687;52.030;7.110;2023-04-01T11:48:01;3.53;;;3.20;;
41653;SDS011;68687;52.030;7.110;2023-04-01T11:59:25;6.40;;;4.50;;
41653;SDS011;68687;52.030;7.110;2023-04-01T12:04:51;4.23;;;3.83;;
41653;SDS011;68687;52.030;7.110;2023-04-01T12:07:45;6.93;;;4.18;;
41653;SDS011;68687;52.030;7.110;2023-04-01T12:10:38;4.18;;;3.78;;
41653;SDS011;68687;52.030;7.110;2023-04-01T12:18:52;4.75;;;4.18;;
41653;SDS011;68687;52.030;7.110;2023-04-01T12:21:27;6.40;;;5.05;;
41653;SDS011;68687;52.030;7.110;2023-04-01T12:24:19;7.72;;;5.15;;
41653;SDS011;68687;52.030;7.110;2023-04-01T12:32:35;6.40;;;4.15;;
41653;SDS011;68687;52.030;7.110;2023-04-01T12:35:15;4.65;;;4.22;;
41653;SDS011;68687;52.030;7.110;2023-04-01T12:41:07;6.80;;;4.30;;
41653;SDS011;68687;52.030;7.110;2023-04-01T12:43:53;4.55;;;4.15;;
41653;SDS011;68687;52.030;7.110;2023-04-01T12:46:54;5.32;;;4.50;;
41653;SDS011;68687;52.030;7.110;2023-04-01T13:00:44;7.10;;;5.72;;
41653;SDS011;68687;52.030;7.110;2023-04-01T13:03:23;5.90;;;5.30;;
41653;SDS011;68687;52.030;7.110;2023-04-01T13:14:49;5.72;;;4.90;;
41653;SDS011;68687;52.030;7.110;2023-04-01T13:17:34;6.72;;;4.70;;
41653;SDS011;68687;52.030;7.110;2023-04-01T13:20:14;6.22;;;5.50;;
41653;SDS011;68687;52.030;7.110;2023-04-01T13:23:02;7.55;;;5.78;;
41653;SDS011;68687;52.030;7.110;2023-04-01T13:25:54;9.18;;;6.85;;
41653;SDS011;68687;52.030;7.110;2023-04-01T13:34:20;10.02;;;7.43;;
41653;SDS011;68687;52.030;7.110;2023-04-01T13:42:46;10.27;;;7.93;;
41653;SDS011;68687;52.030;7.110;2023-04-01T13:45:21;9.15;;;7.50;;
41653;SDS011;68687;52.030;7.110;2023-04-01T13:56:16;9.50;;;6.72;;
41653;SDS011;68687;52.030;7.110;2023-04-01T14:10:40;8.38;;;6.80;;
41653;SDS011;68687;52.030;7.110;2023-04-01T14:24:20;10.55;;;6.93;;
41653;SDS011;68687;52.030;7.110;2023-04-01T14:29:47;10.38;;;7.43;;
41653;SDS011;68687;52.030;7.110;2023-04-01T14:35:46;11.55;;;7.82;;
41653;SDS011;68687;52.030;7.110;2023-04-01T14:41:10;18.98;;;8.93;;
41653;SDS011;68687;52.030;7.110;2023-04-01T14:46:27;9.70;;;7.50;;
41653;SDS011;68687;52.030;7.110;2023-04-01T14:49:22;8.07;;;7.25;;
41653;SDS011;68687;52.030;7.110;2023-04-01T14:51:55;10.30;;;8.10;;
41653;SDS011;68687;52.030;7.110;2023-04-01T14:54:32;11.75;;;9.07;;
41653;SDS011;68687;52.030;7.110;2023-04-01T14:59:51;10.38;;;8.88;;
41653;SDS011;68687;52.030;7.110;2023-04-01T15:10:55;9.82;;;6.65;;
41653;SDS011;68687;52.030;7.110;2023-04-01T15:16:23;6.05;;;4.93;;
41653;SDS011;68687;52.030;7.110;2023-04-01T15:22:01;8.95;;;5.22;;
41653;SDS011;68687;52.030;7.110;2023-04-01T15:24:48;7.28;;;5.35;;
41653;SDS011;68687;52.030;7.110;2023-04-01T15:27:27;6.78;;;5.63;;
41653;SDS011;68687;52.030;7.110;2023-04-01T15:35:57;10.73;;;6.28;;
41653;SDS011;68687;52.030;7.110;2023-04-01T15:38:29;6.78;;;6.00;;
41653;SDS011;68687;52.030;7.110;2023-04-01T15:41:03;12.55;;;6.53;;
41653;SDS011;68687;52.030;7.110;2023-04-01T15:43:43;7.28;;;6.03;;
41653;SDS011;68687;52.030;7.110;2023-04-01T15:54:59;7.18;;;5.85;;
41653;SDS011;68687;52.030;7.110;2023-04-01T16:00:45;7.45;;;6.10;;
41653;SDS011;68687;52.030;7.110;2023-04-01T16:17:20;6.82;;;6.22;;
41653;SDS011;68687;52.030;7.110;2023-04-01T16:25:41;7.95;;;6.43;;
41653;SDS011;68687;52.030;7.110;2023-04-01T16:30:42;6.22;;;5.53;;
41653;SDS011;68687;52.030;7.110;2023-04-01T16:33:14;5.25;;;4.38;;
41653;SDS011;68687;52.030;7.110;2023-04-01T16:35:55;5.88;;;5.25;;
41653;SDS011;68687;52.030;7.110;2023-04-01T16:41:16;5.30;;;4.80;;
41653;SDS011;68687;52.030;7.110;2023-04-01T16:46:56;5.10;;;4.60;;
41653;SDS011;68687;52.030;7.110;2023-04-01T16:49:31;5.18;;;4.68;;
41653;SDS011;68687;52.030;7.110;2023-04-01T16:54:28;5.20;;;4.53;;
41653;SDS011;68687;52.030;7.110;2023-04-01T17:07:36;4.28;;;3.88;;
41653;SDS011;68687;52.030;7.110;2023-04-01T17:10:25;4.47;;;4.03;;
41653;SDS011;68687;52.030;7.110;2023-04-01T17:18:14;5.82;;;5.22;;
41653;SDS011;68687;52.030;7.110;2023-04-01T17:21:00;5.80;;;5.25;;
41653;SDS011;68687;52.030;7.110;2023-04-01T17:23:34;5.75;;;5.15;;
41653;SDS011;68687;52.030;7.110;2023-04-01T17:26:05;6.45;;;4.20;;
41653;SDS011;68687;52.030;7.110;2023-04-01T17:39:34;4.60;;;4.20;;
41653;SDS011;68687;52.030;7.110;2023-04-01T17:42:20;3.70;;;3.40;;
41653;SDS011;68687;52.030;7.110;2023-04-01T17:44:55;3.97;;;3.50;;
41653;SDS011;68687;52.030;7.110;2023-04-01T17:47:29;3.63;;;3.33;;
41653;SDS011;68687;52.030;7.110;2023-04-01T17:50:19;3.60;;;3.33;;
41653;SDS011;68687;52.030;7.110;2023-04-01T18:01:03;5.10;;;4.60;;
41653;SDS011;68687;52.030;7.110;2023-04-01T18:12:34;4.10;;;3.80;;
41653;SDS011;68687;52.030;7.110;2023-04-01T18:20:33;4.30;;;4.00;;
41653;SDS011;68687;52.030;7.110;2023-04-01T18:25:43;5.00;;;4.60;;
41653;SDS011;68687;52.030;7.110;2023-04-01T18:31:15;5.03;;;4.63;;
41653;SDS011;68687;52.030;7.110;2023-04-01T18:36:24;4.63;;;4.22;;
41653;SDS011;68687;52.030;7.110;2023-04-01T18:44:45;4.57;;;4.10;;
41653;SDS011;68687;52.030;7.110;2023-04-01T18:47:17;5.05;;;4.65;;
41653;SDS011;68687;52.030;7.110;2023-04-01T18:53:26;4.82;;;4.53;;
41653;SDS011;68687;52.030;7.110;2023-04-01T19:01:23;4.55;;;4.25;;
41653;SDS011;68687;52.030;7.110;2023-04-01T19:03:57;5.20;;;4.80;;
41653;SDS011;68687;52.030;7.110;2023-04-01T19:10:11;6.03;;;5.20;;
41653;SDS011;68687;52.030;7.110;2023-04-01T19:12:43;4.72;;;4.43;;
41653;SDS011;68687;52.030;7.110;2023-04-01T19:21:01;5.55;;;5.07;;
41653;SDS011;68687;52.030;7.110;2023-04-01T19:26:20;5.25;;;4.85;;
41653;SDS011;68687;52.030;7.110;2023-04-01T19:31:41;6.38;;;5.78;;
41653;SDS011;68687;52.030;7.110;2023-04-01T19:37:02;5.25;;;4.85;;
41653;SDS011;68687;52.030;7.110;2023-04-01T19:42:48;6.50;;;4.40;;
41653;SDS011;68687;52.030;7.110;2023-04-01T19:48:57;5.28;;;4.85;;
41653;SDS011;68687;52.030;7.110;2023-04-01T19:50:55;5.05;;;4.65;;
41653;SDS011;68687;52.030;7.110;2023-04-01T19:53:49;5.22;;;4.72;;
41653;SDS011;68687;52.030;7.110;2023-04-01T19:56:23;6.28;;;5.18;;
41653;SDS011;68687;52.030;7.110;2023-04-01T19:58:58;5.60;;;5.07;;
41653;SDS011;68687;52.030;7.110;2023-04-01T20:01:35;5.35;;;4.88;;
41653;SDS011;68687;52.030;7.110;2023-04-01T20:04:32;5.20;;;4.40;;
41653;SDS011;68687;52.030;7.110;2023-04-01T20:15:37;6.40;;;5.25;;
41653;SDS011;68687;52.030;7.110;2023-04-01T20:18:12;7.03;;;6.40;;
41653;SDS011;68687;52.030;7.110;2023-04-01T20:20:50;7.55;;;6.60;;
41653;SDS011;68687;52.030;7.110;2023-04-01T20:26:53;6.72;;;6.07;;
41653;SDS011;68687;52.030;7.110;2023-04-01T20:32:06;7.63;;;6.88;;
41653;SDS011;68687;52.030;7.110;2023-04-01T20:34:43;7.20;;;6.60;;
41653;SDS011;68687;52.030;7.110;2023-04-01T20:40:24;8.00;;;7.20;;
41653;SDS011;68687;52.030;7.110;2023-04-01T20:43:03;7.20;;;6.50;;
41653;SDS011;68687;52.030;7.110;2023-04-01T20:45:58;7.95;;;7.15;;
41653;SDS011;68687;52.030;7.110;2023-04-01T20:51:22;7.63;;;6.72;;
41653;SDS011;68687;52.030;7.110;2023-04-01T20:57:05;7.50;;;6.75;;
41653;SDS011;68687;52.030;7.110;2023-04-01T20:59:51;7.05;;;6.20;;
41653;SDS011;68687;52.030;7.110;2023-04-01T21:05:09;6.70;;;6.10;;
41653;SDS011;68687;52.030;7.110;2023-04-01T21:07:56;7.22;;;6.60;;
41653;SDS011;68687;52.030;7.110;2023-04-01T21:10:50;7.63;;;6.88;;
41653;SDS011;68687;52.030;7.110;2023-04-01T21:16:35;7.57;;;6.85;;
41653;SDS011;68687;52.030;7.110;2023-04-01T21:35:55;6.90;;;6.20;;
41653;SDS011;68687;52.030;7.110;2023-04-01T21:38:54;6.60;;;6.00;;
41653;SDS011;68687;52.030;7.110;2023-04-01T21:41:40;9.02;;;6.35;;
41653;SDS011;68687;52.030;7.110;2023-04-01T22:05:43;6.05;;;5.10;;
41653;SDS011;68687;52.030;7.110;2023-04-01T22:08:30;5.68;;;5.28;;
41653;SDS011;68687;52.030;7.110;2023-04-01T22:16:43;5.80;;;5.30;;
41653;SDS011;68687;52.030;7.110;2023-04-01T22:24:59;6.05;;;5.45;;
41653;SDS011;68687;52.030;7.110;2023-04-01T22:30:10;6.50;;;5.88;;
41653;SDS011;68687;52.030;7.110;2023-04-01T22:32:47;7.10;;;6.40;;
41653;SDS011;68687;52.030;7.110;2023-04-01T22:37:51;7.15;;;6.35;;
41653;SDS011;68687;52.030;7.110;2023-04-01T22:40:33;7.13;;;6.38;;
41653;SDS011;68687;52.030;7.110;2023-04-01T22:43:08;7.70;;;6.65;;
41653;SDS011;68687;52.030;7.110;2023-04-01T22:48:38;8.77;;;7.07;;
41653;SDS011;68687;52.030;7.110;2023-04-01T22:56:37;7.80;;;7.00;;
41653;SDS011;68687;52.030;7.110;2023-04-01T23:01:44;7.45;;;6.60;;
41653;SDS011;68687;52.030;7.110;2023-04-01T23:04:16;8.60;;;6.80;;
41653;SDS011;68687;52.030;7.110;2023-04-01T23:06:48;7.85;;;7.05;;
41653;SDS011;68687;52.030;7.110;2023-04-01T23:09:19;7.65;;;6.55;;
41653;SDS011;68687;52.030;7.110;2023-04-01T23:19:48;6.80;;;5.22;;
41653;SDS011;68687;52.030;7.110;2023-04-01T23:22:34;6.47;;;5.78;;
41653;SDS011;68687;52.030;7.110;2023-04-01T23:27:47;6.40;;;5.70;;
41653;SDS011;68687;52.030;7.110;2023-04-01T23:36:02;6.35;;;5.75;;
41653;SDS011;68687;52.030;7.110;2023-04-01T23:38:37;7.05;;;5.75;;
41653;SDS011;68687;52.030;7.110;2023-04-01T23:41:06;7.13;;;6.25;;
41653;SDS011;68687;52.030;7.110;2023-04-01T23:43:35;7.20;;;6.50;;
41653;SDS011;68687;52.030;7.110;2023-04-01T23:46:03;7.63;;;6.78;;
41653;SDS011;68687;52.030;7.110;2023-04-01T23:48:42;7.65;;;6.30;;
41653;SDS011;68687;52.030;7.110;2023-04-01T23:51:18;8.98;;;7.07;;
41653;SDS011;68687;52.030;7.110;2023-04-01T23:53:47;8.05;;;6.60;;
41653;SDS011;68687;52.030;7.110;2023-04-01T23:56:21;8.23;;;7.38;;
41653;SDS011;68687;52.030;7.110;2023-04-01T23:58:50;8.77;;;7.25;;
